Time;durP1;ratioP1;P1;durP2;ratioP2;P2;SDS_P1;SDS_P2;PMS_P1;PMS_P2;Temp;Humidity;BMP_temperature;BMP_pressure;BME280_temperature;BME280_humidity;BME280_pressure;Samples;Min_cycle;Max_cycle;Signal;HPM_P1;HPM_P2
2021/10/15 00:00:55;;;;;;;;;;;;;;;21.20;61.63;101621.91;7284184;19;153183;-58
2021/10/15 00:03:22;;;;;;;;;;;;;;;21.21;61.84;101615.19;7292466;19;151824;-58
2021/10/15 00:05:49;;;;;;;;;;;;;;;21.21;61.62;101620.78;7287038;19;153244;-58
2021/10/15 00:08:16;;;;;;;;;;;;;;;21.20;61.77;101614.34;7287897;19;151635;-58
2021/10/15 00:10:43;;;;;;;;;;;;;;;21.22;61.40;101628.91;7287746;19;153364;-59
2021/10/15 00:13:10;;;;;;;;;;;;;;;21.22;61.62;101620.47;7284537;19;153217;-58
2021/10/15 00:15:37;;;;;;;;;;;;;;;21.24;61.56;101615.41;7286407;19;151881;-57
2021/10/15 00:18:04;;;;;;;;;;;;;;;21.26;61.91;101620.72;7287402;19;153357;-58
2021/10/15 00:20:31;;;;;;;;;;;;;;;21.24;61.54;101611.75;7285936;19;154822;-58
2021/10/15 00:22:57;;;;;;;;;;;;;;;21.27;61.58;101613.97;7295797;19;151767;-58
2021/10/15 00:25:24;;;;;;;;;;;;;;;21.25;62.19;101610.63;7286372;19;153124;-59
2021/10/15 00:27:51;;;;;;;;;;;;;;;21.27;61.79;101619.59;7287790;19;151915;-58
2021/10/15 00:30:18;;;;;;;;;;;;;;;21.26;62.18;101609.47;7287141;19;153288;-58
2021/10/15 00:32:45;;;;;;;;;;;;;;;21.27;62.19;101609.19;7284811;19;153295;-57
2021/10/15 00:35:11;;;;;;;;;;;;;;;21.26;62.35;101615.09;7281932;19;152375;-58
2021/10/15 00:37:38;;;;;;;;;;;;;;;21.26;62.69;101613.13;7286249;19;153506;-58
2021/10/15 00:40:05;;;;;;;;;;;;;;;21.26;62.31;101620.72;7284310;19;153254;-57
2021/10/15 00:42:35;;;;;;;;;;;;;;;21.26;62.19;101613.13;7285330;19;151502;-57
2021/10/15 00:45:02;;;;;;;;;;;;;;;21.25;62.55;101610.63;7286090;19;153469;-58
2021/10/15 00:47:28;;;;;;;;;;;;;;;21.26;62.69;101606.66;7284899;19;151735;-58
2021/10/15 00:49:55;;;;;;;;;;;;;;;21.26;62.37;101604.69;7284743;19;153355;-58
2021/10/15 00:52:22;;;;;;;;;;;;;;;21.26;62.37;101601.88;7283629;19;154122;-58
2021/10/15 00:54:49;;;;;;;;;;;;;;;21.23;62.52;101599.69;7283078;19;152286;-57
2021/10/15 00:57:17;;;;;;;;;;;;;;;21.23;62.48;101596.88;7284927;19;151772;-58
2021/10/15 00:59:43;;;;;;;;;;;;;;;21.22;62.84;101600.81;7283885;19;153844;-58
2021/10/15 01:02:10;;;;;;;;;;;;;;;21.22;63.07;101595.19;7281067;19;151838;-57
2021/10/15 01:04:37;;;;;;;;;;;;;;;21.22;63.17;101592.38;7285000;19;152195;-58
2021/10/15 01:07:04;;;;;;;;;;;;;;;21.21;62.80;101585.06;7291966;19;153194;-58
2021/10/15 01:09:31;;;;;;;;;;;;;;;21.22;62.93;101597.16;7284995;19;153418;-58
2021/10/15 01:12:02;;;;;;;;;;;;;;;21.18;63.31;101596.06;7283227;19;153847;-58
2021/10/15 01:14:29;;;;;;;;;;;;;;;21.19;63.30;101597.75;7283780;19;151797;-58
2021/10/15 01:16:56;;;;;;;;;;;;;;;21.17;63.05;101591.59;7285063;19;152696;-59
2021/10/15 01:19:23;;;;;;;;;;;;;;;21.15;63.44;101594.72;7283758;19;153259;-58
2021/10/15 01:21:49;;;;;;;;;;;;;;;21.13;63.40;101587.69;7284449;19;151921;-58
2021/10/15 01:24:18;;;;;;;;;;;;;;;21.11;63.25;101587.97;7283794;19;152186;-59
2021/10/15 01:26:44;;;;;;;;;;;;;;;21.11;63.27;101582.34;7283213;19;153319;-59
2021/10/15 01:29:11;;;;;;;;;;;;;;;21.09;63.46;101581.81;7291115;19;151854;-60
2021/10/15 01:31:38;;;;;;;;;;;;;;;21.08;63.42;101582.94;7282640;19;154056;-59
2021/10/15 01:34:05;;;;;;;;;;;;;;;21.07;63.65;101580.44;7282881;19;151670;-58
2021/10/15 01:36:32;;;;;;;;;;;;;;;21.05;63.67;101580.72;7282844;19;152813;-58
2021/10/15 01:38:58;;;;;;;;;;;;;;;21.06;63.60;101585.22;7283163;19;153500;-59
2021/10/15 01:41:25;;;;;;;;;;;;;;;21.05;63.84;101575.09;7283021;19;151800;-58
2021/10/15 01:43:52;;;;;;;;;;;;;;;21.05;63.88;101575.09;7283813;19;153432;-57
2021/10/15 01:46:18;;;;;;;;;;;;;;;21.04;63.43;101573.44;7282431;19;153128;-59
2021/10/15 01:48:45;;;;;;;;;;;;;;;21.03;63.89;101563.31;7283435;19;151944;-59
2021/10/15 01:51:12;;;;;;;;;;;;;;;21.02;63.55;101560.81;7290077;19;152557;-59
2021/10/15 01:53:40;;;;;;;;;;;;;;;21.01;63.58;101554.38;7283269;19;152130;-58
2021/10/15 01:56:08;;;;;;;;;;;;;;;21.01;63.69;101554.38;7283539;19;153165;-59
2021/10/15 01:58:34;;;;;;;;;;;;;;;21.00;63.66;101554.66;7287352;19;153614;-59
2021/10/15 02:01:01;;;;;;;;;;;;;;;20.99;63.73;101555.78;7289993;19;152359;-59
2021/10/15 02:03:28;;;;;;;;;;;;;;;20.99;64.01;101551.00;7287401;19;153767;-58
2021/10/15 02:05:55;;;;;;;;;;;;;;;20.96;63.86;101545.16;7286850;19;153809;-57
2021/10/15 02:08:21;;;;;;;;;;;;;;;20.97;64.02;101535.59;7286830;19;153463;-57
2021/10/15 02:10:48;;;;;;;;;;;;;;;20.96;63.86;101540.38;7290271;19;153614;-58
2021/10/15 02:13:15;;;;;;;;;;;;;;;20.96;63.63;101533.91;7295911;19;153315;-59
2021/10/15 02:15:41;;;;;;;;;;;;;;;20.93;63.82;101529.72;7288411;19;152825;-58
2021/10/15 02:18:08;;;;;;;;;;;;;;;20.92;63.76;101533.66;7287957;19;153463;-58
2021/10/15 02:20:35;;;;;;;;;;;;;;;20.92;64.26;101527.22;7287958;19;151521;-58
2021/10/15 02:23:02;;;;;;;;;;;;;;;20.92;64.23;101539.28;7288338;19;152097;-59
2021/10/15 02:25:29;;;;;;;;;;;;;;;20.91;64.10;101536.75;7287244;19;153255;-58
2021/10/15 02:27:56;;;;;;;;;;;;;;;20.91;64.41;101525.53;7288756;19;152016;-57
2021/10/15 02:30:23;;;;;;;;;;;;;;;20.90;64.19;101521.03;7288729;19;153083;-58
2021/10/15 02:32:49;;;;;;;;;;;;;;;20.90;64.43;101526.66;7293182;19;153306;-59
2021/10/15 02:35:16;;;;;;;;;;;;;;;20.90;64.62;101523.84;7287084;19;153164;-59
2021/10/15 02:37:43;;;;;;;;;;;;;;;20.88;64.40;101514.91;7287140;19;153857;-58
2021/10/15 02:40:10;;;;;;;;;;;;;;;20.86;64.61;101521.63;7289350;19;152057;-58
2021/10/15 02:42:37;;;;;;;;;;;;;;;20.86;64.45;101513.22;7288932;19;152849;-58
2021/10/15 02:45:04;;;;;;;;;;;;;;;20.86;64.47;101516.03;7288017;19;153239;-58
2021/10/15 02:47:31;;;;;;;;;;;;;;;20.86;64.29;101518.00;7288450;19;151997;-58
2021/10/15 02:49:58;;;;;;;;;;;;;;;20.86;64.22;101504.78;7287947;19;152647;-57
2021/10/15 02:52:24;;;;;;;;;;;;;;;20.85;64.45;101513.50;7287432;19;155581;-58
2021/10/15 02:54:51;;;;;;;;;;;;;;;20.84;64.60;101512.69;7294469;19;152079;-59
2021/10/15 02:57:18;;;;;;;;;;;;;;;20.84;64.79;101517.47;7287246;19;153447;-58
2021/10/15 02:59:44;;;;;;;;;;;;;;;20.84;64.75;101511.84;7288015;19;152244;-58
2021/10/15 03:02:11;;;;;;;;;;;;;;;20.83;64.85;101510.16;7285494;19;152794;-58
2021/10/15 03:04:38;;;;;;;;;;;;;;;20.81;64.56;101507.66;7286868;19;154095;-58
2021/10/15 03:07:05;;;;;;;;;;;;;;;20.82;64.99;101509.31;7288861;19;151682;-59
2021/10/15 03:09:31;;;;;;;;;;;;;;;20.81;64.63;101512.41;7285285;19;152477;-58
2021/10/15 03:11:58;;;;;;;;;;;;;;;20.79;65.03;101509.94;7286629;19;154063;-59
2021/10/15 03:14:24;;;;;;;;;;;;;;;20.77;65.31;101503.75;7287417;19;151685;-58
2021/10/15 03:16:51;;;;;;;;;;;;;;;20.79;65.35;101511.91;7296176;19;152686;-58
2021/10/15 03:19:18;;;;;;;;;;;;;;;20.78;65.47;101513.03;7289336;19;151791;-58
2021/10/15 03:21:44;;;;;;;;;;;;;;;20.78;65.54;101504.59;7289393;19;152647;-59
2021/10/15 03:24:11;;;;;;;;;;;;;;;20.78;65.08;101513.03;7286763;19;153904;-58
2021/10/15 03:26:38;;;;;;;;;;;;;;;20.78;65.58;101508.25;7287328;19;152048;-58
2021/10/15 03:29:04;;;;;;;;;;;;;;;20.78;65.13;101501.78;7287468;19;152729;-59
2021/10/15 03:31:31;;;;;;;;;;;;;;;20.77;65.41;101500.13;7287774;19;154119;-58
2021/10/15 03:33:58;;;;;;;;;;;;;;;20.76;65.69;101502.06;7288577;19;152192;-59
2021/10/15 03:36:25;;;;;;;;;;;;;;;20.76;65.41;101507.69;7286573;19;153549;-59
2021/10/15 03:38:51;;;;;;;;;;;;;;;20.77;65.37;101508.53;7293283;19;153300;-58
2021/10/15 03:41:18;;;;;;;;;;;;;;;20.74;65.74;101509.13;7288551;19;153245;-58
2021/10/15 03:43:45;;;;;;;;;;;;;;;20.75;65.70;101508.00;7287179;19;154005;-58
2021/10/15 03:46:11;;;;;;;;;;;;;;;20.74;65.70;101507.19;7288442;19;151570;-59
2021/10/15 03:48:38;;;;;;;;;;;;;;;20.75;65.58;101508.00;7285874;19;152840;-58
2021/10/15 03:51:05;;;;;;;;;;;;;;;20.73;65.96;101502.69;7286068;19;153395;-58
2021/10/15 03:53:31;;;;;;;;;;;;;;;20.73;66.21;101507.47;7288547;19;151770;-58
2021/10/15 03:55:58;;;;;;;;;;;;;;;20.75;66.43;101505.22;7287049;19;152728;-57
2021/10/15 03:58:25;;;;;;;;;;;;;;;20.73;66.12;101510.25;7285134;19;153793;-59
2021/10/15 04:00:51;;;;;;;;;;;;;;;20.74;66.44;101509.13;7295473;19;151958;-58
2021/10/15 04:03:20;;;;;;;;;;;;;;;20.73;66.68;101518.69;7283722;19;153271;-58
2021/10/15 04:05:46;;;;;;;;;;;;;;;20.73;66.20;101515.88;7288223;19;151842;-58
2021/10/15 04:08:16;;;;;;;;;;;;;;;20.72;66.55;101517.84;7286119;19;151970;-58
2021/10/15 04:10:44;;;;;;;;;;;;;;;20.71;66.57;101519.00;7287232;19;153214;-58
2021/10/15 04:13:10;;;;;;;;;;;;;;;20.72;66.65;101528.25;7288053;19;152006;-58
2021/10/15 04:15:37;;;;;;;;;;;;;;;20.71;66.60;101524.63;7285553;19;152790;-57
2021/10/15 04:18:04;;;;;;;;;;;;;;;20.71;66.64;101524.63;7284346;19;153779;-58
2021/10/15 04:20:35;;;;;;;;;;;;;;;20.70;66.53;101522.94;7288033;19;152010;-58
2021/10/15 04:23:02;;;;;;;;;;;;;;;20.70;66.86;101528.56;7292370;19;152600;-58
2021/10/15 04:25:28;;;;;;;;;;;;;;;20.69;66.48;101524.06;7287186;19;151955;-59
2021/10/15 04:27:55;;;;;;;;;;;;;;;20.70;67.02;101527.72;7286994;19;152689;-59
2021/10/15 04:30:22;;;;;;;;;;;;;;;20.67;66.79;101531.94;7285761;19;153874;-58
2021/10/15 04:32:48;;;;;;;;;;;;;;;20.68;66.58;101528.00;7287064;19;152395;-57
2021/10/15 04:35:15;;;;;;;;;;;;;;;20.68;67.06;101527.16;7287044;19;153610;-58
2021/10/15 04:37:42;;;;;;;;;;;;;;;20.68;66.93;101521.53;7286973;19;153246;-58
2021/10/15 04:40:08;;;;;;;;;;;;;;;20.67;66.95;101528.31;7285559;19;152519;-58
2021/10/15 04:42:36;;;;;;;;;;;;;;;20.66;66.75;101518.22;7292115;19;153489;-58
2021/10/15 04:45:03;;;;;;;;;;;;;;;20.65;66.90;101528.59;7285424;19;152077;-59
2021/10/15 04:47:30;;;;;;;;;;;;;;;20.64;66.87;101535.34;7285699;19;152652;-58
2021/10/15 04:49:57;;;;;;;;;;;;;;;20.64;67.00;101535.34;7283386;19;153942;-58
2021/10/15 04:52:23;;;;;;;;;;;;;;;20.63;67.31;101533.66;7284979;19;152438;-58
2021/10/15 04:54:50;;;;;;;;;;;;;;;20.63;67.47;101527.22;7285731;19;153260;-58
2021/10/15 04:57:16;;;;;;;;;;;;;;;20.64;67.04;101529.72;7283602;19;154089;-59
2021/10/15 04:59:43;;;;;;;;;;;;;;;20.65;66.94;101531.41;7285428;19;152019;-59
2021/10/15 05:02:10;;;;;;;;;;;;;;;20.66;66.89;101541.53;7283014;19;152617;-57
2021/10/15 05:04:39;;;;;;;;;;;;;;;20.65;67.09;101542.66;7291350;19;154373;-57
2021/10/15 05:07:06;;;;;;;;;;;;;;;20.64;66.91;101542.94;7284418;19;153348;-59
2021/10/15 05:12:06;;;;;;;;;;;;;;;20.63;66.93;101544.06;7284654;19;151830;-58
2021/10/15 05:14:33;;;;;;;;;;;;;;;20.64;67.20;101542.94;7284365;19;152622;-59
2021/10/15 05:17:03;;;;;;;;;;;;;;;20.65;67.43;101548.25;7281027;19;153266;-58
2021/10/15 05:19:30;;;;;;;;;;;;;;;20.69;67.41;101545.69;7283371;19;151918;-59
2021/10/15 05:21:57;;;;;;;;;;;;;;;20.71;67.51;101533.03;7284933;19;152728;-58
2021/10/15 05:24:24;;;;;;;;;;;;;;;20.72;68.50;101548.75;7282329;19;154007;-58
2021/10/15 05:26:51;;;;;;;;;;;;;;;20.76;68.50;101548.97;7289802;19;151797;-58
2021/10/15 05:29:17;;;;;;;;;;;;;;;20.79;68.58;101542.78;7281143;19;153241;-58
2021/10/15 05:31:44;;;;;;;;;;;;;;;20.82;68.65;101545.00;7287408;19;151851;-57
2021/10/15 05:34:11;;;;;;;;;;;;;;;20.86;68.90;101540.47;7290475;19;152813;-57
2021/10/15 05:36:38;;;;;;;;;;;;;;;20.91;68.84;101537.59;7287576;19;153957;-58
2021/10/15 05:39:05;;;;;;;;;;;;;;;20.97;69.53;101541.19;7290718;19;151740;-58
2021/10/15 05:41:32;;;;;;;;;;;;;;;21.02;69.77;101544.81;7291102;19;152464;-59
2021/10/15 05:43:59;;;;;;;;;;;;;;;21.08;69.82;101552.03;7289392;19;153143;-59
2021/10/15 05:46:25;;;;;;;;;;;;;;;21.13;69.71;101546.38;7290315;19;151969;-57
2021/10/15 05:48:52;;;;;;;;;;;;;;;21.19;69.66;101544.34;7295839;19;153483;-59
2021/10/15 05:51:21;;;;;;;;;;;;;;;21.25;68.88;101546.00;7290931;19;151868;-58
2021/10/15 05:53:50;;;;;;;;;;;;;;;21.32;68.96;101543.63;7290723;19;152993;-58
2021/10/15 05:59:05;;;;;;;;;;;;;;;21.45;68.50;101545.72;7290187;19;151919;-58
2021/10/15 06:01:33;;;;;;;;;;;;;;;21.52;68.24;101548.19;7287963;19;152625;-58
2021/10/15 06:14:45;;;;;;;;;;;;;;;21.83;67.88;101555.06;7288867;19;153222;-57
2021/10/15 06:17:12;;;;;;;;;;;;;;;21.89;67.44;101555.84;7287537;19;153872;-58
2021/10/15 06:19:45;;;;;;;;;;;;;;;21.95;67.32;101561.13;7289303;19;152023;-59
2021/10/15 06:22:12;;;;;;;;;;;;;;;22.01;66.85;101561.88;7289865;19;153798;-58
2021/10/15 06:24:38;;;;;;;;;;;;;;;22.06;66.90;101564.63;7288197;19;153556;-57
2021/10/15 06:27:05;;;;;;;;;;;;;;;22.10;66.65;101568.50;7288573;19;151870;-58
2021/10/15 06:29:32;;;;;;;;;;;;;;;22.14;66.43;101572.38;7288873;19;152976;-59
2021/10/15 06:31:58;;;;;;;;;;;;;;;22.18;66.44;101582.72;7287487;19;153981;-58
2021/10/15 06:34:25;;;;;;;;;;;;;;;22.22;66.48;101576.47;7297010;19;151835;-58
2021/10/15 06:36:52;;;;;;;;;;;;;;;22.26;66.60;101571.94;7286498;19;152338;-57
2021/10/15 06:39:19;;;;;;;;;;;;;;;22.30;66.08;101587.06;7289255;19;151760;-57
2021/10/15 06:41:45;;;;;;;;;;;;;;;22.33;66.31;101592.94;7286270;19;153441;-58
2021/10/15 06:44:12;;;;;;;;;;;;;;;22.34;66.06;101586.16;7285022;19;153941;-57
2021/10/15 06:46:38;;;;;;;;;;;;;;;22.37;66.03;101591.19;7288991;19;151515;-58
2021/10/15 06:49:05;;;;;;;;;;;;;;;22.40;66.79;101590.56;7287348;19;152752;-58
2021/10/15 06:51:37;;;;;;;;;;;;;;;22.43;66.56;101600.38;7288218;19;153660;-58
2021/10/15 06:54:03;;;;;;;;;;;;;;;22.44;66.04;101608.50;7297242;19;152253;-59
2021/10/15 06:56:30;;;;;;;;;;;;;;;22.46;65.91;101602.56;7286184;19;153988;-57
2021/10/15 06:58:57;;;;;;;;;;;;;;;22.47;65.96;101598.63;7289291;19;151437;-60
2021/10/15 07:01:24;;;;;;;;;;;;;;;22.48;65.95;101600.31;7288031;19;153200;-59
2021/10/15 07:03:50;;;;;;;;;;;;;;;22.49;65.49;101607.59;7284531;19;153997;-58
2021/10/15 07:06:18;;;;;;;;;;;;;;;22.51;65.45;101605.31;7288122;19;151736;-59
2021/10/15 07:08:45;;;;;;;;;;;;;;;22.51;65.28;101611.78;7288886;19;152715;-58
2021/10/15 07:11:13;;;;;;;;;;;;;;;22.52;65.14;101621.91;7287561;19;153110;-58
2021/10/15 07:13:40;;;;;;;;;;;;;;;22.53;64.85;101609.50;7287277;19;151613;-57
2021/10/15 07:16:08;;;;;;;;;;;;;;;22.54;64.84;101618.78;7294435;19;152717;-57
2021/10/15 07:18:34;;;;;;;;;;;;;;;22.54;64.97;101616.81;7286925;19;152068;-58
2021/10/15 07:21:01;;;;;;;;;;;;;;;22.54;64.92;101622.44;7288176;19;152670;-58
2021/10/15 07:23:28;;;;;;;;;;;;;;;22.55;64.44;101618.47;7285692;19;153297;-58
2021/10/15 07:25:54;;;;;;;;;;;;;;;22.55;64.26;101626.94;7287636;19;151991;-58
2021/10/15 07:28:22;;;;;;;;;;;;;;;22.54;64.72;101622.44;7286536;19;152147;-58
2021/10/15 07:30:49;;;;;;;;;;;;;;;22.54;65.05;101630.88;7284787;19;153268;-58
2021/10/15 07:33:16;;;;;;;;;;;;;;;22.54;64.65;101638.50;7287554;19;151686;-58
2021/10/15 07:35:46;;;;;;;;;;;;;;;22.55;64.99;101643.84;7286946;19;152682;-58
2021/10/15 07:38:12;;;;;;;;;;;;;;;22.54;64.67;101644.97;7290258;19;154219;-57
2021/10/15 07:40:40;;;;;;;;;;;;;;;22.54;64.59;101649.75;7287117;19;153256;-58
2021/10/15 07:43:06;;;;;;;;;;;;;;;22.53;64.82;101659.38;7285464;19;154269;-57
2021/10/15 07:45:33;;;;;;;;;;;;;;;22.52;64.33;101664.16;7288174;19;151872;-57
2021/10/15 07:48:00;;;;;;;;;;;;;;;22.52;64.17;101661.34;7285032;19;152772;-58
2021/10/15 07:50:27;;;;;;;;;;;;;;;22.52;64.54;101660.50;7286473;19;153197;-56
2021/10/15 07:52:54;;;;;;;;;;;;;;;22.51;64.39;101659.66;7286885;19;151783;-58
2021/10/15 07:55:21;;;;;;;;;;;;;;;22.50;63.85;101672.06;7287003;19;153314;-58
2021/10/15 07:57:49;;;;;;;;;;;;;;;22.48;64.10;101668.75;7284047;19;153205;-58
2021/10/15 08:00:16;;;;;;;;;;;;;;;22.47;64.23;101688.75;7294970;19;152145;-57
2021/10/15 08:02:43;;;;;;;;;;;;;;;22.46;64.05;101696.34;7284347;19;153461;-58
2021/10/15 08:05:13;;;;;;;;;;;;;;;22.46;63.76;101703.97;7286429;19;151642;-59
2021/10/15 08:07:40;;;;;;;;;;;;;;;22.45;63.93;101705.09;7286366;19;151671;-58
2021/10/15 08:10:07;;;;;;;;;;;;;;;22.43;63.95;101719.50;7285906;19;153667;-58
2021/10/15 08:12:38;;;;;;;;;;;;;;;22.44;64.04;101717.53;7287145;19;152121;-57
2021/10/15 08:15:05;;;;;;;;;;;;;;;22.42;64.03;101720.63;7286275;19;153466;-60
2021/10/15 08:17:32;;;;;;;;;;;;;;;22.42;64.26;101723.44;7282694;19;153774;-58
2021/10/15 08:19:58;;;;;;;;;;;;;;;22.42;63.88;101717.81;7287101;19;152417;-59
2021/10/15 08:22:26;;;;;;;;;;;;;;;22.40;64.13;101728.53;7289082;19;153126;-57
2021/10/15 08:25:06;;;;;;;;;;;;;;;22.40;63.97;101733.31;7286094;19;152242;-57
2021/10/15 08:27:33;;;;;;;;;;;;;;;22.36;64.48;101735.91;7285304;19;153273;-58
2021/10/15 08:30:01;;;;;;;;;;;;;;;22.35;64.23;101739.84;7284745;19;153356;-59
2021/10/15 08:32:27;;;;;;;;;;;;;;;22.35;63.77;101745.50;7285454;19;152121;-57
2021/10/15 08:34:54;;;;;;;;;;;;;;;22.20;60.06;101739.22;7284854;19;152317;-55
2021/10/15 08:37:21;;;;;;;;;;;;;;;22.09;57.52;101756.25;7282520;19;153777;-58
2021/10/15 08:39:47;;;;;;;;;;;;;;;21.95;56.69;101754.44;7284875;19;151973;-57
2021/10/15 08:42:14;;;;;;;;;;;;;;;21.92;56.51;101767.09;7285150;19;153450;-58
2021/10/15 08:44:42;;;;;;;;;;;;;;;21.81;56.25;101773.94;7292056;19;152353;-56
2021/10/15 08:47:11;;;;;;;;;;;;;;;21.71;55.79;101766.47;7285835;19;152571;-56
2021/10/15 08:49:58;;;;;;;;;;;;;;;21.72;55.71;101770.09;7283576;19;153209;-58
2021/10/15 08:52:24;;;;;;;;;;;;;;;21.68;55.33;101783.09;7285351;19;151962;-57
2021/10/15 08:54:53;;;;;;;;;;;;;;;21.64;55.22;101784.81;7283423;19;153262;-57
2021/10/15 08:57:20;;;;;;;;;;;;;;;21.57;54.90;101784.34;7281558;19;154064;-56
2021/10/15 08:59:47;;;;;;;;;;;;;;;21.59;54.98;101794.16;7284798;19;151840;-56
2021/10/15 09:02:18;;;;;;;;;;;;;;;21.56;55.38;101793.91;7283848;19;152546;-56
2021/10/15 09:04:47;;;;;;;;;;;;;;;21.55;54.93;101800.66;7291669;19;153394;-58
2021/10/15 09:07:14;;;;;;;;;;;;;;;21.52;54.65;101801.25;7283228;19;153074;-58
2021/10/15 09:09:42;;;;;;;;;;;;;;;21.44;54.75;101807.50;7283041;19;152081;-56
2021/10/15 09:12:14;;;;;;;;;;;;;;;21.42;55.03;101810.59;7285274;19;152300;-57
2021/10/15 09:14:41;;;;;;;;;;;;;;;21.36;55.63;101810.94;7281584;19;152988;-57
2021/10/15 09:17:12;;;;;;;;;;;;;;;21.28;55.90;101816.06;7282904;19;153193;-57
2021/10/15 09:19:50;;;;;;;;;;;;;;;21.23;56.50;101818.91;7284585;19;151789;-57
2021/10/15 09:22:28;;;;;;;;;;;;;;;21.17;56.61;101822.03;7284668;19;153114;-56
2021/10/15 09:25:09;;;;;;;;;;;;;;;21.12;56.25;101831.31;7283120;19;153583;-56
2021/10/15 09:27:38;;;;;;;;;;;;;;;21.06;56.71;101832.47;7291985;19;152160;-55
2021/10/15 09:30:09;;;;;;;;;;;;;;;21.03;55.90;101837.84;7282689;19;153966;-57
2021/10/15 09:32:36;;;;;;;;;;;;;;;20.99;56.20;101842.34;7284146;19;152018;-56
2021/10/15 09:35:03;;;;;;;;;;;;;;;20.91;55.69;101829.75;7283128;19;152847;-57
2021/10/15 09:37:31;;;;;;;;;;;;;;;20.86;55.50;101835.41;7282082;19;153346;-56
2021/10/15 09:40:06;;;;;;;;;;;;;;;20.76;55.16;101832.63;7282592;19;151975;-57
2021/10/15 09:42:33;;;;;;;;;;;;;;;20.59;55.86;101835.81;7276780;19;152728;-56
2021/10/15 09:45:03;;;;;;;;;;;;;;;20.57;55.46;101838.09;7277743;19;153895;-57
2021/10/15 09:47:30;;;;;;;;;;;;;;;20.54;55.49;101838.63;7281536;19;153321;-56
2021/10/15 09:49:58;;;;;;;;;;;;;;;20.52;55.28;101835.28;7288947;19;153373;-55
2021/10/15 09:52:37;;;;;;;;;;;;;;;20.47;54.91;101842.88;7283113;19;152053;-56
2021/10/15 09:55:05;;;;;;;;;;;;;;;20.37;54.43;101841.78;7282780;19;153376;-57
2021/10/15 09:57:36;;;;;;;;;;;;;;;20.37;54.71;101843.75;7279041;19;153761;-56
2021/10/15 10:00:08;;;;;;;;;;;;;;;20.36;55.07;101854.13;7281586;19;152095;-56
2021/10/15 10:02:35;;;;;;;;;;;;;;;20.29;55.13;101858.34;7281084;19;152605;-57
2021/10/15 10:05:03;;;;;;;;;;;;;;;20.16;55.35;101856.97;7281742;19;153938;-57
2021/10/15 10:07:33;;;;;;;;;;;;;;;20.11;55.33;101864.56;7279355;19;151744;-56
2021/10/15 10:09:59;;;;;;;;;;;;;;;20.12;54.81;101863.44;7276587;19;153555;-56
2021/10/15 10:12:27;;;;;;;;;;;;;;;20.12;54.93;101866.25;7280577;19;154044;-56
2021/10/15 10:14:54;;;;;;;;;;;;;;;20.04;54.51;101864.00;7281594;19;152826;-57
2021/10/15 10:17:23;;;;;;;;;;;;;;;20.04;54.88;101864.00;7281573;19;153387;-57
2021/10/15 10:19:53;;;;;;;;;;;;;;;20.03;54.47;101863.19;7284915;19;152354;-57
2021/10/15 10:22:21;;;;;;;;;;;;;;;20.00;54.27;101866.53;7289611;19;153445;-57
2021/10/15 10:24:55;;;;;;;;;;;;;;;20.00;54.20;101869.34;7285523;19;153421;-56
2021/10/15 10:27:24;;;;;;;;;;;;;;;20.00;54.66;101866.53;7288936;19;152012;-57
2021/10/15 10:29:54;;;;;;;;;;;;;;;19.99;55.06;101867.66;7288433;19;153386;-55
2021/10/15 10:32:22;;;;;;;;;;;;;;;20.01;55.28;101871.03;7286607;19;153990;-56
2021/10/15 10:34:49;;;;;;;;;;;;;;;19.99;54.83;101874.09;7293676;19;151820;-57
2021/10/15 10:37:18;;;;;;;;;;;;;;;20.02;54.55;101886.75;7286986;19;153158;-56
2021/10/15 10:39:53;;;;;;;;;;;;;;;20.09;55.39;101887.28;7287832;19;152628;-56
2021/10/15 10:42:20;;;;;;;;;;;;;;;20.13;54.60;101896.81;7287401;19;152145;-57
2021/10/15 10:45:07;;;;;;;;;;;;;;;20.14;54.26;101897.66;7281109;19;154032;-55
2021/10/15 10:47:35;;;;;;;;;;;;;;;20.19;54.03;101894.84;7284648;19;153000;-56
2021/10/15 10:50:09;;;;;;;;;;;;;;;20.21;54.21;101896.25;7287327;19;152041;-55
2021/10/15 10:52:39;;;;;;;;;;;;;;;20.25;54.45;101894.56;7284637;19;153397;-57
2021/10/15 10:55:06;;;;;;;;;;;;;;;20.28;53.82;101891.19;7292230;19;152822;-56
2021/10/15 10:57:40;;;;;;;;;;;;;;;20.32;53.93;101895.13;7285525;19;154159;-55
2021/10/15 11:00:10;;;;;;;;;;;;;;;20.34;53.74;101892.06;7285329;19;152479;-56
2021/10/15 11:02:43;;;;;;;;;;;;;;;20.37;53.64;101897.09;7286775;19;153111;-57
2021/10/15 11:05:12;;;;;;;;;;;;;;;20.39;53.63;101900.47;7284578;19;154199;-57
2021/10/15 11:07:39;;;;;;;;;;;;;;;20.40;53.59;101904.94;7287450;19;151933;-56
2021/10/15 11:10:21;;;;;;;;;;;;;;;20.41;53.77;101899.03;7285871;19;152592;-56
2021/10/15 11:12:57;;;;;;;;;;;;;;;20.45;53.39;101901.28;7274483;19;153947;-57
2021/10/15 11:15:27;;;;;;;;;;;;;;;20.43;53.84;101912.81;7278368;19;153577;-56
2021/10/15 11:17:56;;;;;;;;;;;;;;;20.45;53.89;101915.31;7289927;19;152842;-56
2021/10/15 11:20:25;;;;;;;;;;;;;;;20.45;53.68;101906.88;7283250;19;152034;-56
2021/10/15 11:22:54;;;;;;;;;;;;;;;20.45;53.75;101926.53;7277816;19;153549;-56
2021/10/15 11:25:22;;;;;;;;;;;;;;;20.44;53.45;101917.31;7272401;19;153397;-56
2021/10/15 11:27:50;;;;;;;;;;;;;;;20.44;53.71;101919.25;7278639;19;151982;-55
2021/10/15 11:30:18;;;;;;;;;;;;;;;20.43;53.37;101924.03;7284825;19;152958;-57
2021/10/15 11:32:46;;;;;;;;;;;;;;;20.41;53.18;101924.31;7281463;19;153333;-56
2021/10/15 11:35:22;;;;;;;;;;;;;;;20.40;53.14;101921.78;7284650;19;151775;-56
2021/10/15 11:37:53;;;;;;;;;;;;;;;20.42;53.48;101922.34;7285520;19;152698;-55
2021/10/15 11:40:24;;;;;;;;;;;;;;;20.42;53.28;101916.72;7278931;19;153872;-57
2021/10/15 11:42:51;;;;;;;;;;;;;;;20.45;53.77;101926.53;7283030;19;152760;-57
2021/10/15 11:45:21;;;;;;;;;;;;;;;20.43;53.42;101929.66;7276822;19;153516;-56
2021/10/15 11:47:51;;;;;;;;;;;;;;;20.42;52.96;101927.94;7282968;19;151637;-56
2021/10/15 11:50:30;;;;;;;;;;;;;;;20.42;52.94;101923.19;7284545;19;153398;-58
2021/10/15 11:52:57;;;;;;;;;;;;;;;20.42;52.32;101922.34;7271564;19;152804;-56
2021/10/15 11:55:31;;;;;;;;;;;;;;;20.43;52.71;101915.59;7274346;19;151992;-57
2021/10/15 11:58:17;;;;;;;;;;;;;;;20.42;52.34;101922.34;7277745;19;153355;-58
2021/10/15 12:00:47;;;;;;;;;;;;;;;20.39;52.58;101920.97;7281870;19;153285;-56
2021/10/15 12:03:22;;;;;;;;;;;;;;;20.41;52.10;101915.03;7289284;19;153710;-57
2021/10/15 12:05:49;;;;;;;;;;;;;;;20.39;52.36;101917.31;7279985;19;153904;-56
2021/10/15 12:08:17;;;;;;;;;;;;;;;20.39;52.34;101920.13;7273914;19;152500;-56
2021/10/15 12:10:44;;;;;;;;;;;;;;;20.38;52.44;101921.22;7275530;19;152501;-57
2021/10/15 12:13:11;;;;;;;;;;;;;;;20.38;51.90;101927.69;7282482;19;152514;-56
2021/10/15 12:15:39;;;;;;;;;;;;;;;20.38;51.98;101919.28;7284223;19;151712;-57
2021/10/15 12:18:06;;;;;;;;;;;;;;;20.37;51.44;101909.16;7284943;19;153106;-56
2021/10/15 12:20:33;;;;;;;;;;;;;;;20.35;51.66;101913.38;7283776;19;153071;-57
2021/10/15 12:23:02;;;;;;;;;;;;;;;20.38;51.76;101910.00;7285846;19;151775;-56
2021/10/15 12:25:29;;;;;;;;;;;;;;;20.39;52.39;101906.91;7289810;19;153071;-57
2021/10/15 12:27:56;;;;;;;;;;;;;;;20.43;52.79;101907.19;7283876;19;151813;-56
2021/10/15 12:30:25;;;;;;;;;;;;;;;20.43;53.61;101910.00;7284574;19;152683;-57
2021/10/15 12:32:52;;;;;;;;;;;;;;;20.43;53.68;101904.38;7281007;19;154069;-57
2021/10/15 12:35:22;;;;;;;;;;;;;;;20.41;53.86;101909.44;7284510;19;151483;-57
2021/10/15 12:37:56;;;;;;;;;;;;;;;20.42;53.54;101911.13;7282853;19;153105;-56
2021/10/15 12:40:29;;;;;;;;;;;;;;;20.48;54.37;101909.97;7279905;19;153815;-56
2021/10/15 12:43:05;;;;;;;;;;;;;;;20.51;54.52;101909.41;7282900;19;152054;-57
2021/10/15 12:45:34;;;;;;;;;;;;;;;20.53;54.09;101912.78;7271780;19;152619;-56
2021/10/15 12:48:03;;;;;;;;;;;;;;;20.54;54.84;101914.44;7285434;19;153323;-55